Time;durP1;ratioP1;P1;durP2;ratioP2;P2;SDS_P1;SDS_P2;PMS_P1;PMS_P2;Temp;Humidity;BMP_temperature;BMP_pressure;BME280_temperature;BME280_humidity;BME280_pressure;Samples;Min_cycle;Max_cycle;Signal;HPM_P1;HPM_P2
2023/04/05 00:01:11;;;;;;;;;;;;;;;1.26;53.14;98570.81;5102106;28;19927;-57
2023/04/05 00:03:38;;;;;;;;;;;;;;;1.22;53.26;98564.28;5105473;28;19984;-56
2023/04/05 00:06:07;;;;;;;;;;;;;;;1.30;52.80;98570.13;5109394;28;19930;-56
2023/04/05 00:08:36;;;;;;;;;;;;;;;1.23;52.58;98565.94;5113741;28;19930;-55
2023/04/05 00:11:04;;;;;;;;;;;;;;;1.18;52.69;98560.47;5112869;28;20700;-55
2023/04/05 00:13:32;;;;;;;;;;;;;;;1.13;52.36;98560.38;5095469;28;19924;-56
2023/04/05 00:16:00;;;;;;;;;;;;;;;0.89;52.65;98564.91;5103976;28;19924;-56
2023/04/05 00:18:33;;;;;;;;;;;;;;;0.89;52.78;98557.69;5110415;28;19928;-55
2023/04/05 00:21:01;;;;;;;;;;;;;;;1.02;52.73;98554.78;5091066;28;20288;-56
2023/04/05 00:23:36;;;;;;;;;;;;;;;1.07;52.79;98551.41;5110616;28;19930;-55
2023/04/05 00:26:04;;;;;;;;;;;;;;;1.05;52.44;98554.31;5106249;28;19924;-55
2023/04/05 00:28:32;;;;;;;;;;;;;;;0.96;52.67;98544.19;5111729;28;19930;-56
2023/04/05 00:31:00;;;;;;;;;;;;;;;0.79;52.69;98554.78;5104351;28;19966;-57
2023/04/05 00:33:29;;;;;;;;;;;;;;;0.99;52.60;98546.41;5111099;28;20436;-60
2023/04/05 00:35:57;;;;;;;;;;;;;;;0.91;52.67;98552.94;5108566;28;19924;-56
2023/04/05 00:38:25;;;;;;;;;;;;;;;0.89;52.58;98544.31;5094248;28;20391;-59
2023/04/05 00:40:53;;;;;;;;;;;;;;;0.92;52.60;98540.38;5092839;28;19924;-56
2023/04/05 00:43:21;;;;;;;;;;;;;;;0.94;52.91;98540.94;5106628;28;20450;-55
2023/04/05 00:45:51;;;;;;;;;;;;;;;0.80;53.26;98548.41;5080759;28;19923;-56
2023/04/05 00:48:19;;;;;;;;;;;;;;;0.92;53.00;98543.03;5090056;28;19931;-55
2023/04/05 00:50:49;;;;;;;;;;;;;;;0.80;53.04;98540.38;5105619;28;20012;-55
2023/04/05 00:53:17;;;;;;;;;;;;;;;0.79;53.63;98549.44;5090606;28;19938;-58
2023/04/05 00:55:46;;;;;;;;;;;;;;;0.77;53.71;98540.84;5088513;28;20010;-56
2023/04/05 00:58:18;;;;;;;;;;;;;;;0.86;54.21;98535.97;5104982;28;19928;-57
2023/04/05 01:00:46;;;;;;;;;;;;;;;0.69;53.99;98539.34;5107906;28;20368;-55
2023/04/05 01:03:19;;;;;;;;;;;;;;;0.60;54.06;98540.72;5089359;28;19958;-55
2023/04/05 01:05:47;;;;;;;;;;;;;;;0.52;54.72;98544.53;5105336;28;19927;-57
2023/04/05 01:08:18;;;;;;;;;;;;;;;0.26;54.88;98535.06;5111444;28;19993;-56
2023/04/05 01:10:46;;;;;;;;;;;;;;;0.31;55.32;98531.72;5091220;28;20358;-56
2023/04/05 01:13:17;;;;;;;;;;;;;;;0.41;54.87;98526.63;5110552;28;19987;-56
2023/04/05 01:15:45;;;;;;;;;;;;;;;0.44;54.30;98525.34;5102977;28;19963;-56
2023/04/05 01:18:13;;;;;;;;;;;;;;;0.45;54.57;98522.44;5112296;28;19946;-56
2023/04/05 01:20:43;;;;;;;;;;;;;;;0.46;54.87;98513.38;5094152;28;19961;-56
2023/04/05 01:23:14;;;;;;;;;;;;;;;0.23;55.64;98510.69;5105300;28;19954;-55
2023/04/05 01:25:57;;;;;;;;;;;;;;;0.41;55.61;98510.56;5093915;28;20303;-55
2023/04/05 01:28:46;;;;;;;;;;;;;;;0.45;55.29;98506.41;5109722;28;19949;-55
2023/04/05 01:31:17;;;;;;;;;;;;;;;0.37;54.98;98505.91;5078243;28;20054;-56
2023/04/05 01:33:48;;;;;;;;;;;;;;;0.38;55.29;98502.22;5089130;28;19961;-56
2023/04/05 01:36:17;;;;;;;;;;;;;;;0.34;55.66;98495.72;5110637;28;19942;-56
2023/04/05 01:38:46;;;;;;;;;;;;;;;0.39;55.77;98496.63;5091078;28;19940;-56
2023/04/05 01:41:13;;;;;;;;;;;;;;;0.24;55.89;98493.59;5111146;27;19942;-56
2023/04/05 01:43:41;;;;;;;;;;;;;;;0.29;55.99;98488.38;5109179;28;19957;-56
2023/04/05 01:46:09;;;;;;;;;;;;;;;0.29;55.83;98491.03;5088703;28;20311;-56
2023/04/05 01:48:38;;;;;;;;;;;;;;;0.22;56.42;98488.50;5108181;28;19951;-56
2023/04/05 01:51:06;;;;;;;;;;;;;;;0.28;56.17;98484.09;5092700;28;19940;-56
2023/04/05 01:53:34;;;;;;;;;;;;;;;0.34;56.18;98480.47;5090559;28;20030;-56
2023/04/05 01:56:02;;;;;;;;;;;;;;;0.21;56.63;98481.53;5091311;28;19934;-56
2023/04/05 01:58:37;;;;;;;;;;;;;;;0.22;56.67;98483.16;5104977;28;19924;-56
2023/04/05 02:01:06;;;;;;;;;;;;;;;0.05;56.62;98474.16;5083257;28;19977;-55
2023/04/05 02:03:35;;;;;;;;;;;;;;;0.13;56.62;98481.03;5109438;28;19951;-55
2023/04/05 02:06:04;;;;;;;;;;;;;;;0.18;56.59;98478.47;5106161;28;19930;-55
2023/04/05 02:08:32;;;;;;;;;;;;;;;0.15;56.91;98489.63;5109396;28;19931;-55
2023/04/05 02:11:00;;;;;;;;;;;;;;;0.14;56.53;98488.00;5106820;28;19923;-56
2023/04/05 02:13:29;;;;;;;;;;;;;;;0.15;56.93;98484.28;5110333;28;19949;-56
2023/04/05 02:15:57;;;;;;;;;;;;;;;0.06;57.06;98485.69;5099821;28;19959;-59
2023/04/05 02:18:28;;;;;;;;;;;;;;;-0.04;57.06;98491.56;5109740;28;19932;-55
2023/04/05 02:21:01;;;;;;;;;;;;;;;0.08;57.00;98488.91;5106068;28;19977;-56
2023/04/05 02:23:30;;;;;;;;;;;;;;;0.22;56.74;98493.03;5093463;28;19931;-56
2023/04/05 02:25:58;;;;;;;;;;;;;;;0.26;56.67;98491.50;5088443;28;19932;-55
2023/04/05 02:28:26;;;;;;;;;;;;;;;0.17;56.58;98487.56;5087861;28;19935;-56
2023/04/05 02:30:54;;;;;;;;;;;;;;;0.15;56.85;98486.94;5084881;28;19924;-55
2023/04/05 02:33:22;;;;;;;;;;;;;;;0.24;56.73;98486.38;5110896;28;20373;-55
2023/04/05 02:35:50;;;;;;;;;;;;;;;0.15;57.04;98484.28;5088364;28;19973;-56
2023/04/05 02:38:18;;;;;;;;;;;;;;;0.26;56.46;98481.63;5091983;28;19927;-55
2023/04/05 02:40:48;;;;;;;;;;;;;;;0.17;56.79;98476.88;5109172;28;19924;-56
2023/04/05 02:43:16;;;;;;;;;;;;;;;0.11;57.20;98478.59;5100526;28;19927;-55
2023/04/05 02:45:44;;;;;;;;;;;;;;;0.18;57.13;98478.47;5104621;28;19932;-57
2023/04/05 02:48:14;;;;;;;;;;;;;;;0.08;57.33;98478.22;5108386;28;20511;-55
2023/04/05 02:50:42;;;;;;;;;;;;;;;0.14;57.55;98474.63;5106073;28;20428;-56
2023/04/05 02:53:10;;;;;;;;;;;;;;;0.17;56.63;98475.00;5106762;28;19924;-55
2023/04/05 02:55:40;;;;;;;;;;;;;;;0.17;56.93;98476.88;5106399;28;20296;-55
2023/04/05 02:58:10;;;;;;;;;;;;;;;0.11;57.23;98481.28;5107618;28;20103;-59
2023/04/05 03:00:45;;;;;;;;;;;;;;;0.05;57.35;98479.50;5079504;28;19927;-55
2023/04/05 03:03:13;;;;;;;;;;;;;;;0.07;57.88;98473.94;5105643;28;19923;-55
2023/04/05 03:05:42;;;;;;;;;;;;;;;0.13;57.59;98475.69;5086334;28;20305;-56
2023/04/05 03:08:17;;;;;;;;;;;;;;;0.15;57.54;98470.91;5090614;28;19924;-56
2023/04/05 03:10:55;;;;;;;;;;;;;;;-0.03;57.26;98472.63;5088724;28;19923;-56
2023/04/05 03:13:25;;;;;;;;;;;;;;;-0.11;57.57;98464.94;5108165;28;20391;-56
2023/04/05 03:15:53;;;;;;;;;;;;;;;-0.02;57.48;98460.91;5078770;28;19958;-56
2023/04/05 03:18:24;;;;;;;;;;;;;;;-0.11;57.46;98459.59;5095253;28;19945;-55
2023/04/05 03:20:55;;;;;;;;;;;;;;;-0.13;57.93;98461.69;5106524;28;19941;-55
2023/04/05 03:23:26;;;;;;;;;;;;;;;-0.11;57.25;98459.59;5092891;28;19923;-55
2023/04/05 03:25:54;;;;;;;;;;;;;;;-0.21;57.81;98459.38;5104711;28;19938;-56
2023/04/05 03:28:26;;;;;;;;;;;;;;;-0.13;57.22;98452.88;5106050;28;19935;-57
2023/04/05 03:30:59;;;;;;;;;;;;;;;-0.34;57.81;98457.69;5093300;28;19966;-60
2023/04/05 03:33:27;;;;;;;;;;;;;;;-0.35;58.13;98464.06;5092697;28;19958;-56
2023/04/05 03:35:56;;;;;;;;;;;;;;;-0.47;58.64;98457.06;5088111;28;19949;-56
2023/04/05 03:38:31;;;;;;;;;;;;;;;-0.33;58.12;98461.16;5102841;28;19936;-56
2023/04/05 03:41:10;;;;;;;;;;;;;;;-0.26;57.75;98456.56;5100592;28;19982;-56
2023/04/05 03:43:40;;;;;;;;;;;;;;;-0.28;57.78;98458.63;5091270;28;19949;-56
2023/04/05 03:46:08;;;;;;;;;;;;;;;-0.34;58.05;98454.19;5098443;28;19958;-56
2023/04/05 03:48:36;;;;;;;;;;;;;;;-0.27;58.17;98465.59;5086237;28;19953;-55
2023/04/05 03:51:04;;;;;;;;;;;;;;;-0.21;57.98;98464.72;5109781;28;20402;-56
2023/04/05 03:53:32;;;;;;;;;;;;;;;-0.28;57.53;98456.78;5091122;28;19980;-56
2023/04/05 03:56:00;;;;;;;;;;;;;;;-0.29;57.67;98465.00;5093203;28;19938;-55
2023/04/05 03:58:50;;;;;;;;;;;;;;;-0.30;57.83;98466.06;5111006;28;19935;-56
2023/04/05 04:01:23;;;;;;;;;;;;;;;-0.23;57.72;98474.78;5087014;28;19964;-57
2023/04/05 04:03:51;;;;;;;;;;;;;;;-0.21;57.79;98471.88;5112617;28;19941;-56
2023/04/05 04:06:19;;;;;;;;;;;;;;;-0.31;57.99;98467.13;5094122;28;19970;-56
2023/04/05 04:08:47;;;;;;;;;;;;;;;-0.25;57.64;98468.88;5091301;28;19938;-55
2023/04/05 04:11:14;;;;;;;;;;;;;;;-0.17;56.95;98465.03;5106738;28;19950;-56
2023/04/05 04:13:42;;;;;;;;;;;;;;;-0.21;57.33;98466.53;5092955;28;20426;-55
2023/04/05 04:16:17;;;;;;;;;;;;;;;-0.30;57.14;98460.72;5104270;28;20329;-55
2023/04/05 04:18:54;;;;;;;;;;;;;;;-0.22;57.20;98462.25;5091935;28;19996;-55
2023/04/05 04:21:50;;;;;;;;;;;;;;;-0.18;57.10;98458.09;5093496;28;19934;-56
2023/04/05 04:24:37;;;;;;;;;;;;;;;-0.17;57.24;98460.50;5091399;28;20311;-56
2023/04/05 04:27:35;;;;;;;;;;;;;;;-0.08;57.26;98461.81;5090704;28;20396;-55
2023/04/05 04:30:13;;;;;;;;;;;;;;;-0.08;57.22;98459.16;5074655;28;19934;-55
2023/04/05 04:33:08;;;;;;;;;;;;;;;-0.18;57.29;98460.75;5085036;28;19957;-57
2023/04/05 04:35:37;;;;;;;;;;;;;;;-0.32;57.69;98462.78;5090741;28;19942;-55
2023/04/05 04:38:28;;;;;;;;;;;;;;;-0.42;58.22;98466.03;5084015;28;19938;-55
2023/04/05 04:41:16;;;;;;;;;;;;;;;-0.37;58.33;98460.00;5070653;28;19934;-56
2023/04/05 04:44:13;;;;;;;;;;;;;;;-0.25;58.11;98450.19;5084006;28;20315;-55
2023/04/05 04:47:00;;;;;;;;;;;;;;;-0.42;57.53;98454.53;5075032;28;20104;-56
2023/04/05 04:49:45;;;;;;;;;;;;;;;-0.30;57.69;98458.88;5072085;28;19966;-56
2023/04/05 04:52:13;;;;;;;;;;;;;;;-0.16;57.52;98456.81;5087522;28;20294;-57
2023/04/05 04:54:41;;;;;;;;;;;;;;;-0.11;57.62;98459.59;5066152;28;19943;-56
2023/04/05 04:57:09;;;;;;;;;;;;;;;-0.03;57.50;98459.28;5073543;28;20381;-57
2023/04/05 04:59:37;;;;;;;;;;;;;;;-0.02;57.36;98463.56;5088886;28;19932;-56
2023/04/05 05:02:07;;;;;;;;;;;;;;;0.10;56.92;98454.75;5063317;28;19958;-56
2023/04/05 05:04:34;;;;;;;;;;;;;;;-0.14;57.19;98460.06;5067501;28;19938;-55
2023/04/05 05:07:04;;;;;;;;;;;;;;;-0.05;57.04;98474.72;5079434;28;20372;-57
2023/04/05 05:09:33;;;;;;;;;;;;;;;0.18;56.58;98473.94;5082591;28;20353;-56
2023/04/05 05:12:01;;;;;;;;;;;;;;;0.11;56.78;98472.44;5087010;28;19954;-56
2023/04/05 05:14:28;;;;;;;;;;;;;;;0.17;56.29;98471.53;5089309;28;19950;-56
2023/04/05 05:16:57;;;;;;;;;;;;;;;0.03;56.63;98475.44;5083916;28;20458;-56
2023/04/05 05:19:28;;;;;;;;;;;;;;;0.01;56.82;98472.19;5094276;28;19949;-55
2023/04/05 05:21:57;;;;;;;;;;;;;;;0.03;56.71;98470.09;5093566;28;20049;-55
2023/04/05 05:24:26;;;;;;;;;;;;;;;0.02;56.57;98479.16;5090849;28;19934;-55
2023/04/05 05:26:54;;;;;;;;;;;;;;;-0.05;57.22;98480.06;5082377;28;19935;-55
2023/04/05 05:29:22;;;;;;;;;;;;;;;0.11;56.87;98478.59;5080152;28;20277;-56
2023/04/05 05:31:50;;;;;;;;;;;;;;;0.25;56.36;98476.50;5063153;28;19977;-57
2023/04/05 05:34:19;;;;;;;;;;;;;;;0.29;56.25;98477.69;5080185;28;20358;-56
2023/04/05 05:36:51;;;;;;;;;;;;;;;0.21;56.31;98478.84;5076440;28;19935;-56
2023/04/05 05:39:22;;;;;;;;;;;;;;;0.28;56.60;98478.72;5087742;28;20277;-56
2023/04/05 05:41:51;;;;;;;;;;;;;;;0.44;55.90;98483.41;5084957;28;20633;-59
2023/04/05 05:44:20;;;;;;;;;;;;;;;0.50;55.64;98487.00;5085322;28;19938;-57
2023/04/05 05:46:48;;;;;;;;;;;;;;;0.52;55.55;98475.00;5086260;28;19957;-56
2023/04/05 05:49:16;;;;;;;;;;;;;;;0.62;55.21;98476.28;5082833;28;19950;-57
2023/04/05 05:51:44;;;;;;;;;;;;;;;0.60;54.99;98489.09;5079673;28;20327;-57
2023/04/05 05:54:12;;;;;;;;;;;;;;;0.50;55.23;98498.50;5079470;28;20012;-56
2023/04/05 05:56:40;;;;;;;;;;;;;;;0.47;55.05;98498.13;5078394;28;19992;-56
2023/04/05 05:59:09;;;;;;;;;;;;;;;0.61;54.92;98504.09;5077525;28;19939;-56
2023/04/05 06:01:37;;;;;;;;;;;;;;;0.77;54.42;98493.50;5072245;28;20028;-56
2023/04/05 06:04:05;;;;;;;;;;;;;;;0.89;54.55;98496.16;5085083;28;19935;-56
2023/04/05 06:06:34;;;;;;;;;;;;;;;0.87;53.82;98492.09;5081218;28;20319;-56
2023/04/05 06:09:04;;;;;;;;;;;;;;;0.65;54.48;98494.56;5087418;28;19924;-56
2023/04/05 06:11:32;;;;;;;;;;;;;;;1.05;53.93;98491.94;5087354;28;20043;-56
2023/04/05 06:14:00;;;;;;;;;;;;;;;1.12;53.26;98494.50;5085575;28;19994;-57
2023/04/05 06:16:30;;;;;;;;;;;;;;;1.24;52.99;98500.66;5066448;28;19955;-56
2023/04/05 06:18:58;;;;;;;;;;;;;;;1.33;52.92;98490.38;5092733;28;19934;-56
2023/04/05 06:21:26;;;;;;;;;;;;;;;1.28;52.69;98489.25;5089202;28;19983;-59
2023/04/05 06:23:54;;;;;;;;;;;;;;;1.36;52.46;98490.72;5106775;28;19934;-60
2023/04/05 06:26:25;;;;;;;;;;;;;;;1.47;52.56;98487.19;5105552;28;19942;-57
2023/04/05 06:28:54;;;;;;;;;;;;;;;1.22;52.76;98489.34;5105204;28;19935;-58
2023/04/05 06:31:25;;;;;;;;;;;;;;;1.16;52.79;98490.31;5100914;28;19990;-56
2023/04/05 06:33:55;;;;;;;;;;;;;;;0.91;53.53;98488.72;5105118;28;19982;-56
2023/04/05 06:36:23;;;;;;;;;;;;;;;1.08;53.63;98493.34;5100572;28;19939;-61
2023/04/05 06:38:53;;;;;;;;;;;;;;;1.09;53.75;98494.97;5098500;28;19969;-56
2023/04/05 06:41:21;;;;;;;;;;;;;;;1.40;53.41;98493.75;5104962;28;19942;-60
2023/04/05 06:43:49;;;;;;;;;;;;;;;1.60;51.93;98496.81;5103715;28;20041;-57
2023/04/05 06:46:17;;;;;;;;;;;;;;;1.88;51.97;98503.22;5100267;28;20404;-56
2023/04/05 06:48:47;;;;;;;;;;;;;;;2.11;51.19;98500.41;5087199;28;19935;-57
2023/04/05 06:51:16;;;;;;;;;;;;;;;2.08;51.61;98500.91;5103675;28;19931;-57
2023/04/05 06:53:44;;;;;;;;;;;;;;;1.96;51.51;98495.59;5103427;28;19954;-56
2023/04/05 06:56:12;;;;;;;;;;;;;;;1.90;51.76;98496.56;5102299;28;20609;-57
2023/04/05 06:58:39;;;;;;;;;;;;;;;2.22;51.34;98498.72;5100092;28;19943;-57
2023/04/05 07:01:07;;;;;;;;;;;;;;;2.17;51.00;98501.31;5079846;28;20319;-57
2023/04/05 07:03:35;;;;;;;;;;;;;;;2.02;51.13;98499.97;5111400;28;20017;-57
2023/04/05 07:06:03;;;;;;;;;;;;;;;1.91;51.02;98498.19;5090422;28;20455;-56
2023/04/05 07:08:33;;;;;;;;;;;;;;;2.19;49.85;98504.56;5102032;28;19923;-56
2023/04/05 07:11:00;;;;;;;;;;;;;;;2.17;50.82;98495.94;5102803;28;20410;-56
2023/04/05 07:13:28;;;;;;;;;;;;;;;1.98;50.78;98498.88;5104335;28;20391;-57
2023/04/05 07:15:59;;;;;;;;;;;;;;;2.36;49.71;98500.03;5098043;28;19966;-56
2023/04/05 07:18:28;;;;;;;;;;;;;;;2.08;50.40;98498.22;5104696;28;19978;-56
2023/04/05 07:20:58;;;;;;;;;;;;;;;2.18;50.37;98493.00;5104993;28;19979;-56
2023/04/05 07:23:29;;;;;;;;;;;;;;;2.08;50.10;98485.63;5105365;28;19974;-57
2023/04/05 07:26:04;;;;;;;;;;;;;;;2.24;50.06;98496.63;5087814;28;19954;-57
2023/04/05 07:28:34;;;;;;;;;;;;;;;2.70;49.00;98489.28;5101208;27;20000;-56
2023/04/05 07:31:02;;;;;;;;;;;;;;;2.96;48.08;98477.84;5081479;28;19966;-56
2023/04/05 07:33:30;;;;;;;;;;;;;;;3.05;48.23;98486.28;5111922;28;19961;-56
2023/04/05 07:35:58;;;;;;;;;;;;;;;3.08;48.09;98481.22;5104068;27;19942;-60
2023/04/05 07:38:27;;;;;;;;;;;;;;;3.30;48.10;98483.94;5086727;28;20330;-57
2023/04/05 07:40:55;;;;;;;;;;;;;;;3.47;48.19;98481.19;5104946;28;19927;-57
2023/04/05 07:43:25;;;;;;;;;;;;;;;3.66;47.51;98478.94;5110810;27;19954;-56
2023/04/05 07:46:00;;;;;;;;;;;;;;;3.74;46.16;98485.78;5109068;27;19969;-56
2023/04/05 07:48:29;;;;;;;;;;;;;;;4.04;45.46;98478.00;5105898;28;19932;-58
2023/04/05 07:50:57;;;;;;;;;;;;;;;4.23;45.16;98481.13;5112549;27;19931;-56
2023/04/05 07:53:25;;;;;;;;;;;;;;;4.50;45.35;98481.06;5110680;27;19924;-57
2023/04/05 07:55:53;;;;;;;;;;;;;;;4.73;44.58;98475.31;5098637;28;19928;-56
2023/04/05 07:58:21;;;;;;;;;;;;;;;4.77;42.91;98467.53;5106318;27;19924;-56
2023/04/05 08:00:52;;;;;;;;;;;;;;;4.28;42.66;98475.00;5111553;27;19923;-56
2023/04/05 08:03:20;;;;;;;;;;;;;;;4.84;43.03;98470.00;5105314;28;19924;-57
2023/04/05 08:05:48;;;;;;;;;;;;;;;4.91;41.40;98465.19;5114438;28;20277;-56
2023/04/05 08:08:16;;;;;;;;;;;;;;;4.75;40.96;98463.50;5103183;28;20661;-57
2023/04/05 08:10:44;;;;;;;;;;;;;;;4.89;40.71;98467.31;5114636;27;19947;-59
2023/04/05 08:13:11;;;;;;;;;;;;;;;4.98;41.02;98471.16;5112169;28;20282;-57
2023/04/05 08:15:40;;;;;;;;;;;;;;;5.04;40.56;98470.09;5107053;27;19924;-57
2023/04/05 08:18:12;;;;;;;;;;;;;;;5.48;40.31;98467.88;5091567;28;19928;-56
2023/04/05 08:20:40;;;;;;;;;;;;;;;5.82;39.47;98455.84;5094686;28;19931;-57
2023/04/05 08:23:09;;;;;;;;;;;;;;;5.81;38.52;98463.13;5099221;28;19993;-57
2023/04/05 08:25:36;;;;;;;;;;;;;;;6.12;38.83;98461.28;5075627;28;19935;-56
2023/04/05 08:28:05;;;;;;;;;;;;;;;6.28;39.52;98451.31;5071213;28;19938;-56
2023/04/05 08:30:33;;;;;;;;;;;;;;;6.28;38.80;98457.56;5082105;28;19968;-56
2023/04/05 08:33:03;;;;;;;;;;;;;;;6.56;37.76;98458.06;5055435;28;19951;-56
2023/04/05 08:35:32;;;;;;;;;;;;;;;6.63;36.37;98455.91;5089290;28;19938;-56
2023/04/05 08:38:01;;;;;;;;;;;;;;;6.54;35.97;98458.31;5061846;28;19935;-57
2023/04/05 08:40:30;;;;;;;;;;;;;;;6.56;36.42;98455.38;5070470;28;19950;-57
2023/04/05 08:43:08;;;;;;;;;;;;;;;6.62;35.96;98459.69;5077829;28;20033;-56
2023/04/05 08:45:37;;;;;;;;;;;;;;;6.22;38.26;98464.00;5078316;28;20011;-57
2023/04/05 08:48:05;;;;;;;;;;;;;;;6.72;36.17;98464.25;5091435;28;19934;-57
2023/04/05 08:50:34;;;;;;;;;;;;;;;6.86;34.95;98467.19;5069187;28;19924;-57
2023/04/05 08:53:02;;;;;;;;;;;;;;;6.63;34.78;98464.00;5070359;28;20052;-61
2023/04/05 08:55:30;;;;;;;;;;;;;;;6.95;34.90;98460.16;5085401;28;19931;-57
2023/04/05 08:57:59;;;;;;;;;;;;;;;7.06;33.83;98459.84;5083487;28;19935;-57
2023/04/05 09:00:30;;;;;;;;;;;;;;;6.78;33.36;98457.78;5066728;28;19935;-57
2023/04/05 09:02:57;;;;;;;;;;;;;;;6.70;34.22;98458.31;5084687;28;19935;-57
2023/04/05 09:05:25;;;;;;;;;;;;;;;6.46;33.91;98455.38;5080770;28;19939;-57
2023/04/05 09:07:54;;;;;;;;;;;;;;;6.23;35.23;98452.16;5073125;28;19935;-57
2023/04/05 09:10:23;;;;;;;;;;;;;;;6.29;35.95;98451.06;5079891;28;19974;-57
2023/04/05 09:12:51;;;;;;;;;;;;;;;6.29;35.11;98455.66;5079151;28;19938;-58
2023/04/05 09:15:20;;;;;;;;;;;;;;;6.58;34.65;98450.50;5082237;28;19938;-60
2023/04/05 09:17:51;;;;;;;;;;;;;;;7.11;33.88;98450.94;5076802;28;20538;-57
2023/04/05 09:20:19;;;;;;;;;;;;;;;7.11;33.23;98453.63;5072271;28;19935;-57
2023/04/05 09:22:47;;;;;;;;;;;;;;;7.00;33.72;98452.03;5094654;28;19924;-58
2023/04/05 09:25:32;;;;;;;;;;;;;;;6.87;34.57;98441.78;5105969;28;20347;-57
2023/04/05 09:28:02;;;;;;;;;;;;;;;6.72;33.76;98451.56;5104375;28;19954;-58
2023/04/05 09:30:31;;;;;;;;;;;;;;;6.73;33.56;98447.78;5103184;28;19949;-57
2023/04/05 09:33:01;;;;;;;;;;;;;;;6.27;33.79;98447.00;5091862;28;20387;-56
2023/04/05 09:35:29;;;;;;;;;;;;;;;6.78;33.00;98445.06;5105444;28;19962;-56
2023/04/05 09:38:00;;;;;;;;;;;;;;;6.59;32.77;98445.91;5108203;28;19999;-58
2023/04/05 09:40:42;;;;;;;;;;;;;;;7.19;32.05;98439.56;5096042;28;19979;-58
2023/04/05 09:43:10;;;;;;;;;;;;;;;6.63;31.59;98441.59;5110781;28;19934;-57
2023/04/05 09:45:41;;;;;;;;;;;;;;;6.98;32.73;98440.72;5105869;28;19977;-56
2023/04/05 09:48:09;;;;;;;;;;;;;;;7.12;32.16;98441.72;5111069;28;19979;-57
2023/04/05 09:50:37;;;;;;;;;;;;;;;6.82;33.30;98440.75;5110884;27;19942;-56
2023/04/05 09:53:08;;;;;;;;;;;;;;;6.62;33.35;98451.59;5108651;28;19978;-57
2023/04/05 09:55:36;;;;;;;;;;;;;;;6.78;33.09;98439.66;5108088;28;20410;-58
2023/04/05 09:58:05;;;;;;;;;;;;;;;6.87;33.06;98441.78;5101235;28;19954;-57
2023/04/05 10:00:33;;;;;;;;;;;;;;;7.49;32.36;98437.78;5105676;28;19938;-56
2023/04/05 10:03:01;;;;;;;;;;;;;;;8.14;31.86;98439.25;5107948;28;19934;-56
2023/04/05 10:05:31;;;;;;;;;;;;;;;8.32;31.18;98445.91;5105669;28;19939;-56
2023/04/05 10:07:59;;;;;;;;;;;;;;;8.58;30.06;98445.72;5090449;28;20501;-57
2023/04/05 10:10:27;;;;;;;;;;;;;;;8.39;29.89;98446.41;5099601;28;20411;-56
2023/04/05 10:12:55;;;;;;;;;;;;;;;8.45;30.33;98435.53;5106206;28;19942;-60
2023/04/05 10:15:24;;;;;;;;;;;;;;;8.48;31.07;98435.78;5091029;28;20367;-56
2023/04/05 10:17:54;;;;;;;;;;;;;;;9.09;30.83;98426.22;5109913;28;19924;-59
2023/04/05 10:20:22;;;;;;;;;;;;;;;9.30;29.45;98424.88;5106713;28;19928;-56
2023/04/05 10:22:54;;;;;;;;;;;;;;;9.20;29.58;98430.44;5106502;28;19930;-56
2023/04/05 10:25:24;;;;;;;;;;;;;;;9.61;29.46;98421.78;5086737;28;19943;-57
2023/04/05 10:27:53;;;;;;;;;;;;;;;9.79;28.77;98420.16;5101978;28;19961;-57
2023/04/05 10:30:21;;;;;;;;;;;;;;;9.63;29.23;98425.00;5081319;28;19949;-57
2023/04/05 10:32:56;;;;;;;;;;;;;;;9.00;29.59;98422.53;5086819;28;21718;-59
2023/04/05 10:35:28;;;;;;;;;;;;;;;8.70;30.00;98426.38;5089305;28;19950;-57
2023/04/05 10:37:59;;;;;;;;;;;;;;;8.96;30.05;98419.59;5092564;28;19961;-57
2023/04/05 10:40:29;;;;;;;;;;;;;;;8.81;30.21;98431.41;5101935;28;19928;-56
2023/04/05 10:42:58;;;;;;;;;;;;;;;7.48;31.12;98428.06;5108201;28;19938;-56
2023/04/05 10:45:26;;;;;;;;;;;;;;;6.94;32.25;98429.63;5097881;28;20852;-57
2023/04/05 10:47:57;;;;;;;;;;;;;;;6.75;33.17;98426.69;5110347;28;19930;-56
2023/04/05 10:50:25;;;;;;;;;;;;;;;6.84;33.38;98424.25;5102853;28;19924;-57
2023/04/05 10:52:53;;;;;;;;;;;;;;;6.82;33.03;98426.44;5097906;28;19962;-61
2023/04/05 10:55:21;;;;;;;;;;;;;;;6.51;33.09;98425.69;5083914;28;20365;-58
2023/04/05 10:57:51;;;;;;;;;;;;;;;6.18;33.48;98418.94;5100053;28;20311;-58
2023/04/05 11:00:19;;;;;;;;;;;;;;;6.11;34.75;98424.59;5084878;28;19938;-57
2023/04/05 11:02:48;;;;;;;;;;;;;;;6.52;33.23;98421.91;5099774;28;19935;-57
2023/04/05 11:05:33;;;;;;;;;;;;;;;6.48;32.99;98423.50;5112249;28;20306;-58
2023/04/05 11:08:06;;;;;;;;;;;;;;;6.37;33.29;98417.31;5103978;28;19934;-57
2023/04/05 11:10:35;;;;;;;;;;;;;;;6.67;32.73;98402.97;5112876;28;20383;-57
2023/04/05 11:13:06;;;;;;;;;;;;;;;6.78;32.08;98407.25;5111052;28;19942;-57
2023/04/05 11:15:34;;;;;;;;;;;;;;;6.55;32.47;98418.63;5105226;27;19955;-57
2023/04/05 11:18:03;;;;;;;;;;;;;;;6.62;32.02;98402.19;5113752;27;20395;-57
2023/04/05 11:20:42;;;;;;;;;;;;;;;6.98;32.33;98402.91;5112592;27;19938;-57
2023/04/05 11:23:11;;;;;;;;;;;;;;;7.47;31.76;98399.44;5109638;28;20040;-58
2023/04/05 11:25:40;;;;;;;;;;;;;;;7.55;31.21;98398.81;5110750;28;19946;-57
2023/04/05 11:28:08;;;;;;;;;;;;;;;7.77;30.62;98401.91;5112721;28;20413;-57
2023/04/05 11:30:46;;;;;;;;;;;;;;;7.72;30.27;98391.13;5106193;28;19924;-57
2023/04/05 11:40:15;;;;;;;;;;;;;;;7.81;30.13;98378.63;5104700;28;20414;-57
2023/04/05 11:42:43;;;;;;;;;;;;;;;8.01;29.92;98385.00;5103312;28;19979;-57
2023/04/05 11:45:11;;;;;;;;;;;;;;;7.48;30.26;98382.13;5094209;27;19938;-58
2023/04/05 11:47:48;;;;;;;;;;;;;;;7.87;30.32;98374.00;5109021;28;19927;-58
2023/04/05 11:50:17;;;;;;;;;;;;;;;7.94;30.17;98373.69;5100328;28;19942;-58
2023/04/05 11:53:09;;;;;;;;;;;;;;;7.90;30.85;98378.06;5111753;27;19969;-60
2023/04/05 11:55:54;;;;;;;;;;;;;;;8.31;30.39;98362.25;5112719;28;19928;-59
2023/04/05 11:58:23;;;;;;;;;;;;;;;8.24;29.87;98369.91;5095184;28;20399;-57
2023/04/05 12:00:57;;;;;;;;;;;;;;;8.37;29.91;98364.69;5109434;28;19950;-61
2023/04/05 12:04:08;;;;;;;;;;;;;;;8.53;29.72;98356.41;5097153;28;19985;-57
2023/04/05 12:11:12;;;;;;;;;;;;;;;8.78;30.18;98345.28;5109244;28;19923;-57
2023/04/05 12:14:56;;;;;;;;;;;;;;;8.62;29.63;98347.34;5086447;28;19942;-57
2023/04/05 12:18:15;;;;;;;;;;;;;;;8.53;29.80;98348.28;5076227;28;20071;-57
2023/04/05 12:20:46;;;;;;;;;;;;;;;8.68;30.00;98344.59;5111860;28;19931;-57
2023/04/05 12:23:16;;;;;;;;;;;;;;;8.65;29.43;98338.66;5109369;27;20002;-58
2023/04/05 12:25:45;;;;;;;;;;;;;;;8.97;29.78;98342.63;5110935;28;19924;-60
2023/04/05 12:28:13;;;;;;;;;;;;;;;9.03;29.65;98340.66;5093410;28;19945;-57
2023/04/05 12:30:48;;;;;;;;;;;;;;;9.25;30.15;98331.97;5102915;28;19958;-58
2023/04/05 12:33:17;;;;;;;;;;;;;;;6.68;29.30;97947.50;5102032;28;19949;-58
2023/04/05 12:35:45;;;;;;;;;;;;;;;8.72;29.49;98334.78;5102991;28;19954;-57
2023/04/05 12:38:16;;;;;;;;;;;;;;;8.49;29.53;98331.00;5105875;28;19941;-57
2023/04/05 12:40:44;;;;;;;;;;;;;;;7.99;31.73;98325.75;5111601;27;20421;-58
2023/04/05 12:43:18;;;;;;;;;;;;;;;8.53;30.51;98318.50;5109419;28;19954;-58
2023/04/05 12:45:49;;;;;;;;;;;;;;;8.79;29.86;98319.81;5085829;28;20061;-57
2023/04/05 12:48:22;;;;;;;;;;;;;;;9.04;29.35;98317.88;5102145;28;19968;-57
2023/04/05 12:50:52;;;;;;;;;;;;;;;8.91;29.47;98325.63;5107418;28;19958;-59
2023/04/05 12:53:20;;;;;;;;;;;;;;;8.58;30.45;98313.03;5100839;28;19950;-58
2023/04/05 12:55:49;;;;;;;;;;;;;;;8.25;30.18;98310.06;5101932;28;19958;-58
2023/04/05 12:58:17;;;;;;;;;;;;;;;8.17;30.58;98315.31;5092378;28;19934;-57
2023/04/05 13:00:45;;;;;;;;;;;;;;;8.73;30.17;98310.13;5102053;27;19939;-59
2023/04/05 13:03:18;;;;;;;;;;;;;;;8.89;29.16;98306.16;5100150;28;19984;-58
2023/04/05 13:05:48;;;;;;;;;;;;;;;8.99;29.13;98307.91;5109857;27;19977;-58
2023/04/05 13:08:17;;;;;;;;;;;;;;;8.52;30.21;98306.88;5087966;28;19938;-57
2023/04/05 13:10:45;;;;;;;;;;;;;;;8.67;29.87;98305.84;5109213;28;19935;-57
2023/04/05 13:13:13;;;;;;;;;;;;;;;8.17;30.26;98297.16;5105520;27;19934;-57
2023/04/05 13:15:41;;;;;;;;;;;;;;;7.97;30.57;98308.19;5100655;28;19962;-57
2023/04/05 13:18:09;;;;;;;;;;;;;;;7.83;31.30;98295.34;5105170;28;20370;-59
2023/04/05 13:20:37;;;;;;;;;;;;;;;7.91;31.25;98295.78;5086811;28;20291;-59
2023/04/05 13:23:09;;;;;;;;;;;;;;;7.98;31.25;98288.16;5091382;28;19954;-57
2023/04/05 13:25:37;;;;;;;;;;;;;;;7.65;31.21;98293.31;5107850;28;19942;-57